sensor_id;sensor_type;location;lat;lon;timestamp;pressure;altitude;pressure_sealevel;temperature;humidity
62031;BME280;62035;52.094;5.112;2022-10-03T00:02:00;102671.19;;;12.21;100.00
62031;BME280;62035;52.094;5.112;2022-10-03T00:04:42;102674.84;;;12.20;100.00
62031;BME280;62035;52.094;5.112;2022-10-03T00:07:29;102672.34;;;12.30;100.00
62031;BME280;62035;52.094;5.112;2022-10-03T00:10:14;102678.28;;;12.10;100.00
62031;BME280;62035;52.094;5.112;2022-10-03T00:12:57;102683.84;;;12.07;100.00
62031;BME280;62035;52.094;5.112;2022-10-03T00:15:44;102687.13;;;11.99;100.00
62031;BME280;62035;52.094;5.112;2022-10-03T00:18:29;102695.38;;;12.07;100.00
62031;BME280;62035;52.094;5.112;2022-10-03T00:21:16;102690.56;;;12.12;100.00
62031;BME280;62035;52.094;5.112;2022-10-03T00:24:00;102696.47;;;12.05;100.00
62031;BME280;62035;52.094;5.112;2022-10-03T00:26:48;102701.88;;;11.92;100.00
62031;BME280;62035;52.094;5.112;2022-10-03T00:29:30;102706.28;;;12.04;100.00
62031;BME280;62035;52.094;5.112;2022-10-03T00:32:21;102706.56;;;12.12;100.00
62031;BME280;62035;52.094;5.112;2022-10-03T00:35:09;102709.44;;;11.98;100.00
62031;BME280;62035;52.094;5.112;2022-10-03T00:38:01;102702.03;;;12.01;100.00
62031;BME280;62035;52.094;5.112;2022-10-03T00:41:13;102707.13;;;12.05;100.00
62031;BME280;62035;52.094;5.112;2022-10-03T00:44:22;102693.31;;;11.99;100.00
62031;BME280;62035;52.094;5.112;2022-10-03T00:51:02;102706.06;;;12.31;100.00
62031;BME280;62035;52.094;5.112;2022-10-03T00:53:57;102709.19;;;12.25;100.00
62031;BME280;62035;52.094;5.112;2022-10-03T00:57:02;102718.56;;;12.07;100.00
62031;BME280;62035;52.094;5.112;2022-10-03T01:00:00;102721.09;;;11.84;100.00
62031;BME280;62035;52.094;5.112;2022-10-03T01:02:45;102722.53;;;12.01;100.00
62031;BME280;62035;52.094;5.112;2022-10-03T01:05:30;102729.13;;;12.08;100.00
62031;BME280;62035;52.094;5.112;2022-10-03T01:11:39;102735.50;;;11.69;100.00
62031;BME280;62035;52.094;5.112;2022-10-03T01:14:31;102737.13;;;11.84;100.00
62031;BME280;62035;52.094;5.112;2022-10-03T01:17:28;102743.19;;;11.86;100.00
62031;BME280;62035;52.094;5.112;2022-10-03T01:20:13;102737.63;;;11.89;100.00
62031;BME280;62035;52.094;5.112;2022-10-03T01:23:11;102740.09;;;11.80;100.00
62031;BME280;62035;52.094;5.112;2022-10-03T01:26:06;102741.69;;;11.82;100.00
62031;BME280;62035;52.094;5.112;2022-10-03T01:28:50;102739.03;;;11.82;100.00
62031;BME280;62035;52.094;5.112;2022-10-03T01:31:46;102743.94;;;11.63;100.00
62031;BME280;62035;52.094;5.112;2022-10-03T01:34:26;102734.50;;;11.59;100.00
62031;BME280;62035;52.094;5.112;2022-10-03T01:37:04;102738.91;;;11.71;100.00
62031;BME280;62035;52.094;5.112;2022-10-03T01:39:44;102740.31;;;11.89;100.00
62031;BME280;62035;52.094;5.112;2022-10-03T01:42:28;102741.59;;;11.71;100.00
62031;BME280;62035;52.094;5.112;2022-10-03T01:45:14;102738.38;;;11.91;100.00
62031;BME280;62035;52.094;5.112;2022-10-03T01:47:55;102738.16;;;11.94;100.00
62031;BME280;62035;52.094;5.112;2022-10-03T01:50:30;102739.16;;;11.81;100.00
62031;BME280;62035;52.094;5.112;2022-10-03T01:53:06;102739.25;;;11.79;100.00
62031;BME280;62035;52.094;5.112;2022-10-03T01:55:53;102740.97;;;11.80;100.00
62031;BME280;62035;52.094;5.112;2022-10-03T01:58:29;102741.38;;;11.87;100.00
62031;BME280;62035;52.094;5.112;2022-10-03T02:01:11;102736.59;;;11.79;100.00
62031;BME280;62035;52.094;5.112;2022-10-03T02:03:53;102736.88;;;11.87;100.00
62031;BME280;62035;52.094;5.112;2022-10-03T02:06:37;102740.53;;;11.86;100.00
62031;BME280;62035;52.094;5.112;2022-10-03T02:09:19;102750.53;;;11.95;100.00
62031;BME280;62035;52.094;5.112;2022-10-03T02:12:08;102736.44;;;11.93;100.00
62031;BME280;62035;52.094;5.112;2022-10-03T02:14:48;102749.25;;;11.76;100.00
62031;BME280;62035;52.094;5.112;2022-10-03T02:17:26;102745.75;;;11.88;100.00
62031;BME280;62035;52.094;5.112;2022-10-03T02:20:17;102747.56;;;11.87;100.00
62031;BME280;62035;52.094;5.112;2022-10-03T02:22:53;102747.56;;;11.87;100.00
62031;BME280;62035;52.094;5.112;2022-10-03T02:25:25;102745.63;;;11.89;100.00
62031;BME280;62035;52.094;5.112;2022-10-03T02:28:54;102742.22;;;11.75;100.00
62031;BME280;62035;52.094;5.112;2022-10-03T02:31:51;102744.16;;;11.85;100.00
62031;BME280;62035;52.094;5.112;2022-10-03T02:35:04;102738.59;;;11.88;100.00
62031;BME280;62035;52.094;5.112;2022-10-03T02:38:02;102742.56;;;11.83;100.00
62031;BME280;62035;52.094;5.112;2022-10-03T02:41:12;102745.84;;;11.86;100.00
62031;BME280;62035;52.094;5.112;2022-10-03T02:44:06;102742.97;;;11.89;100.00
62031;BME280;62035;52.094;5.112;2022-10-03T02:47:55;102740.72;;;11.96;100.00
62031;BME280;62035;52.094;5.112;2022-10-03T02:54:59;102754.28;;;11.80;100.00
62031;BME280;62035;52.094;5.112;2022-10-03T03:01:47;102742.66;;;11.81;100.00
62031;BME280;62035;52.094;5.112;2022-10-03T03:04:47;102750.97;;;11.89;100.00
62031;BME280;62035;52.094;5.112;2022-10-03T03:07:43;102756.53;;;11.86;100.00
62031;BME280;62035;52.094;5.112;2022-10-03T03:10:51;102752.91;;;11.87;100.00
62031;BME280;62035;52.094;5.112;2022-10-03T03:14:05;102761.66;;;11.89;100.00
62031;BME280;62035;52.094;5.112;2022-10-03T03:16:56;102766.56;;;11.83;100.00
62031;BME280;62035;52.094;5.112;2022-10-03T03:19:46;102762.53;;;11.77;100.00
62031;BME280;62035;52.094;5.112;2022-10-03T03:22:35;102763.03;;;11.69;100.00
62031;BME280;62035;52.094;5.112;2022-10-03T03:25:48;102767.03;;;11.51;100.00
62031;BME280;62035;52.094;5.112;2022-10-03T03:28:37;102771.06;;;11.57;100.00
62031;BME280;62035;52.094;5.112;2022-10-03T03:31:15;102765.00;;;11.42;100.00
62031;BME280;62035;52.094;5.112;2022-10-03T03:33:55;102770.13;;;11.45;100.00
62031;BME280;62035;52.094;5.112;2022-10-03T03:36:36;102768.41;;;11.44;100.00
62031;BME280;62035;52.094;5.112;2022-10-03T03:39:27;102773.09;;;11.41;100.00
62031;BME280;62035;52.094;5.112;2022-10-03T03:42:19;102774.91;;;11.40;100.00
62031;BME280;62035;52.094;5.112;2022-10-03T03:45:07;102765.44;;;11.36;100.00
62031;BME280;62035;52.094;5.112;2022-10-03T03:47:59;102771.72;;;11.22;100.00
62031;BME280;62035;52.094;5.112;2022-10-03T03:50:54;102776.81;;;11.25;100.00
62031;BME280;62035;52.094;5.112;2022-10-03T03:53:54;102779.28;;;11.28;100.00
62031;BME280;62035;52.094;5.112;2022-10-03T03:56:58;102776.81;;;11.25;100.00
62031;BME280;62035;52.094;5.112;2022-10-03T03:59:55;102778.75;;;11.36;100.00
62031;BME280;62035;52.094;5.112;2022-10-03T04:02:45;102775.78;;;11.53;100.00
62031;BME280;62035;52.094;5.112;2022-10-03T04:05:32;102775.34;;;11.59;100.00
62031;BME280;62035;52.094;5.112;2022-10-03T04:08:31;102773.84;;;11.43;100.00
62031;BME280;62035;52.094;5.112;2022-10-03T04:11:23;102771.34;;;11.65;100.00
62031;BME280;62035;52.094;5.112;2022-10-03T04:14:26;102771.72;;;11.48;100.00
62031;BME280;62035;52.094;5.112;2022-10-03T04:17:24;102776.63;;;11.41;100.00
62031;BME280;62035;52.094;5.112;2022-10-03T04:20:43;102779.19;;;11.55;100.00
62031;BME280;62035;52.094;5.112;2022-10-03T04:23:33;102780.03;;;11.56;100.00
62031;BME280;62035;52.094;5.112;2022-10-03T04:26:27;102781.31;;;11.50;100.00
62031;BME280;62035;52.094;5.112;2022-10-03T04:29:19;102792.16;;;11.60;100.00
62031;BME280;62035;52.094;5.112;2022-10-03T04:32:14;102790.81;;;11.54;100.00
62031;BME280;62035;52.094;5.112;2022-10-03T04:35:15;102791.88;;;11.77;100.00
62031;BME280;62035;52.094;5.112;2022-10-03T04:38:03;102790.56;;;11.83;100.00
62031;BME280;62035;52.094;5.112;2022-10-03T04:40:46;102784.91;;;11.75;100.00
62031;BME280;62035;52.094;5.112;2022-10-03T04:43:34;102784.69;;;11.65;100.00
62031;BME280;62035;52.094;5.112;2022-10-03T04:46:22;102792.16;;;11.73;100.00
62031;BME280;62035;52.094;5.112;2022-10-03T04:49:02;102797.91;;;11.66;100.00
62031;BME280;62035;52.094;5.112;2022-10-03T04:51:46;102792.41;;;11.57;100.00
62031;BME280;62035;52.094;5.112;2022-10-03T04:54:25;102801.69;;;11.39;100.00
62031;BME280;62035;52.094;5.112;2022-10-03T04:57:14;102805.53;;;11.47;100.00
62031;BME280;62035;52.094;5.112;2022-10-03T04:59:55;102800.94;;;11.36;100.00
62031;BME280;62035;52.094;5.112;2022-10-03T05:02:38;102799.34;;;11.59;100.00
62031;BME280;62035;52.094;5.112;2022-10-03T05:08:30;102802.31;;;11.29;100.00
62031;BME280;62035;52.094;5.112;2022-10-03T05:11:12;102801.16;;;11.33;100.00
62031;BME280;62035;52.094;5.112;2022-10-03T05:13:57;102805.41;;;11.49;100.00
62031;BME280;62035;52.094;5.112;2022-10-03T05:16:37;102807.44;;;11.45;100.00
62031;BME280;62035;52.094;5.112;2022-10-03T05:19:35;102808.50;;;11.43;100.00
62031;BME280;62035;52.094;5.112;2022-10-03T05:22:43;102809.69;;;11.51;100.00
62031;BME280;62035;52.094;5.112;2022-10-03T05:25:28;102812.13;;;11.54;100.00
62031;BME280;62035;52.094;5.112;2022-10-03T05:28:15;102809.88;;;11.35;100.00
62031;BME280;62035;52.094;5.112;2022-10-03T05:30:52;102802.22;;;11.56;100.00
62031;BME280;62035;52.094;5.112;2022-10-03T05:33:37;102814.59;;;11.57;100.00
62031;BME280;62035;52.094;5.112;2022-10-03T05:36:14;102807.72;;;11.66;100.00
62031;BME280;62035;52.094;5.112;2022-10-03T05:39:27;102816.63;;;11.54;100.00
62031;BME280;62035;52.094;5.112;2022-10-03T05:42:17;102812.97;;;11.67;100.00
62031;BME280;62035;52.094;5.112;2022-10-03T05:45:04;102807.75;;;11.79;100.00
62031;BME280;62035;52.094;5.112;2022-10-03T05:47:51;102802.94;;;11.84;100.00
62031;BME280;62035;52.094;5.112;2022-10-03T05:53:56;102816.06;;;11.61;100.00
62031;BME280;62035;52.094;5.112;2022-10-03T05:57:02;102817.97;;;11.72;100.00
62031;BME280;62035;52.094;5.112;2022-10-03T06:00:07;102823.44;;;11.96;100.00
62031;BME280;62035;52.094;5.112;2022-10-03T06:03:12;102814.25;;;12.24;100.00
62031;BME280;62035;52.094;5.112;2022-10-03T06:06:15;102813.16;;;12.39;100.00
62031;BME280;62035;52.094;5.112;2022-10-03T06:08:56;102820.31;;;12.62;100.00
62031;BME280;62035;52.094;5.112;2022-10-03T06:12:04;102822.63;;;12.67;100.00
62031;BME280;62035;52.094;5.112;2022-10-03T06:15:10;102820.97;;;12.77;100.00
62031;BME280;62035;52.094;5.112;2022-10-03T06:18:01;102827.31;;;12.87;100.00
62031;BME280;62035;52.094;5.112;2022-10-03T06:21:04;102819.00;;;13.03;100.00
62031;BME280;62035;52.094;5.112;2022-10-03T06:24:07;102823.00;;;13.44;100.00
62031;BME280;62035;52.094;5.112;2022-10-03T06:27:10;102816.94;;;13.75;100.00
62031;BME280;62035;52.094;5.112;2022-10-03T06:30:11;102808.41;;;13.48;100.00
62031;BME280;62035;52.094;5.112;2022-10-03T06:33:14;102812.91;;;13.69;100.00
62031;BME280;62035;52.094;5.112;2022-10-03T06:36:25;102804.25;;;13.99;100.00
62031;BME280;62035;52.094;5.112;2022-10-03T06:43:10;102811.47;;;13.99;100.00
62031;BME280;62035;52.094;5.112;2022-10-03T06:49:46;102813.25;;;14.10;100.00
62031;BME280;62035;52.094;5.112;2022-10-03T06:52:52;102808.00;;;14.30;100.00
62031;BME280;62035;52.094;5.112;2022-10-03T06:55:59;102820.72;;;14.49;100.00
62031;BME280;62035;52.094;5.112;2022-10-03T06:59:11;102807.63;;;14.35;100.00
62031;BME280;62035;52.094;5.112;2022-10-03T07:02:28;102806.84;;;14.55;100.00
62031;BME280;62035;52.094;5.112;2022-10-03T07:12:15;102804.84;;;14.68;100.00
62031;BME280;62035;52.094;5.112;2022-10-03T07:22:23;102812.97;;;15.20;100.00
62031;BME280;62035;52.094;5.112;2022-10-03T07:25:41;102824.66;;;15.40;100.00
62031;BME280;62035;52.094;5.112;2022-10-03T07:28:49;102824.59;;;15.51;100.00
62031;BME280;62035;52.094;5.112;2022-10-03T07:31:45;102817.75;;;15.58;100.00
62031;BME280;62035;52.094;5.112;2022-10-03T07:38:06;102821.66;;;15.84;100.00
62031;BME280;62035;52.094;5.112;2022-10-03T07:41:20;102833.75;;;16.09;100.00
62031;BME280;62035;52.094;5.112;2022-10-03T07:51:13;102848.34;;;15.76;100.00
62031;BME280;62035;52.094;5.112;2022-10-03T07:54:22;102841.88;;;15.37;100.00
62031;BME280;62035;52.094;5.112;2022-10-03T07:57:26;102841.28;;;15.54;100.00
62031;BME280;62035;52.094;5.112;2022-10-03T08:00:19;102851.94;;;15.65;100.00
62031;BME280;62035;52.094;5.112;2022-10-03T08:03:27;102853.00;;;15.74;100.00
62031;BME280;62035;52.094;5.112;2022-10-03T08:06:19;102850.84;;;15.68;100.00
62031;BME280;62035;52.094;5.112;2022-10-03T08:09:09;102844.91;;;16.05;100.00
62031;BME280;62035;52.094;5.112;2022-10-03T08:12:33;102842.72;;;16.29;100.00
62031;BME280;62035;52.094;5.112;2022-10-03T08:15:43;102842.59;;;16.40;100.00
62031;BME280;62035;52.094;5.112;2022-10-03T08:19:01;102839.16;;;16.69;100.00
62031;BME280;62035;52.094;5.112;2022-10-03T08:21:57;102839.84;;;16.90;100.00
62031;BME280;62035;52.094;5.112;2022-10-03T08:24:58;102855.41;;;16.86;100.00
62031;BME280;62035;52.094;5.112;2022-10-03T08:31:25;102853.44;;;17.08;100.00
62031;BME280;62035;52.094;5.112;2022-10-03T08:34:27;102840.13;;;17.16;100.00
62031;BME280;62035;52.094;5.112;2022-10-03T08:37:35;102847.97;;;17.46;100.00
62031;BME280;62035;52.094;5.112;2022-10-03T08:40:57;102843.19;;;17.40;100.00
62031;BME280;62035;52.094;5.112;2022-10-03T08:44:03;102841.13;;;17.71;100.00
62031;BME280;62035;52.094;5.112;2022-10-03T08:50:24;102849.56;;;17.86;100.00
62031;BME280;62035;52.094;5.112;2022-10-03T08:53:49;102852.13;;;18.15;100.00
62031;BME280;62035;52.094;5.112;2022-10-03T08:56:38;102849.03;;;18.10;100.00
62031;BME280;62035;52.094;5.112;2022-10-03T09:10:08;102842.91;;;18.80;100.00
62031;BME280;62035;52.094;5.112;2022-10-03T09:13:11;102840.28;;;19.06;100.00
62031;BME280;62035;52.094;5.112;2022-10-03T09:19:25;102847.13;;;18.20;100.00
62031;BME280;62035;52.094;5.112;2022-10-03T09:22:36;102840.75;;;18.21;100.00
62031;BME280;62035;52.094;5.112;2022-10-03T09:25:35;102839.31;;;18.44;100.00
62031;BME280;62035;52.094;5.112;2022-10-03T09:31:23;102823.91;;;18.54;100.00
62031;BME280;62035;52.094;5.112;2022-10-03T09:34:19;102839.69;;;18.77;100.00
62031;BME280;62035;52.094;5.112;2022-10-03T09:37:22;102834.03;;;18.88;100.00
62031;BME280;62035;52.094;5.112;2022-10-03T09:40:49;102840.75;;;18.84;100.00
62031;BME280;62035;52.094;5.112;2022-10-03T09:44:13;102827.09;;;18.85;100.00
62031;BME280;62035;52.094;5.112;2022-10-03T09:47:02;102812.91;;;18.83;100.00
62031;BME280;62035;52.094;5.112;2022-10-03T09:57:19;102835.56;;;18.55;100.00
62031;BME280;62035;52.094;5.112;2022-10-03T10:00:14;102828.75;;;18.51;100.00
62031;BME280;62035;52.094;5.112;2022-10-03T10:06:32;102829.94;;;18.84;100.00
62031;BME280;62035;52.094;5.112;2022-10-03T10:09:39;102828.00;;;19.12;100.00
62031;BME280;62035;52.094;5.112;2022-10-03T10:16:06;102828.84;;;19.56;100.00
62031;BME280;62035;52.094;5.112;2022-10-03T10:19:27;102825.63;;;19.52;100.00
62031;BME280;62035;52.094;5.112;2022-10-03T10:26:07;102815.00;;;20.01;100.00
62031;BME280;62035;52.094;5.112;2022-10-03T10:29:21;102825.69;;;20.11;100.00
62031;BME280;62035;52.094;5.112;2022-10-03T10:39:45;102821.94;;;19.95;100.00
62031;BME280;62035;52.094;5.112;2022-10-03T10:46:22;102820.72;;;19.90;100.00
62031;BME280;62035;52.094;5.112;2022-10-03T10:49:46;102821.66;;;20.15;100.00
62031;BME280;62035;52.094;5.112;2022-10-03T10:52:49;102819.88;;;19.89;100.00
62031;BME280;62035;52.094;5.112;2022-10-03T10:56:23;102817.72;;;20.01;100.00
62031;BME280;62035;52.094;5.112;2022-10-03T11:06:46;102824.06;;;20.26;100.00
62031;BME280;62035;52.094;5.112;2022-10-03T11:09:45;102814.53;;;20.06;100.00
62031;BME280;62035;52.094;5.112;2022-10-03T11:13:10;102814.84;;;20.03;100.00
62031;BME280;62035;52.094;5.112;2022-10-03T11:16:49;102807.47;;;20.13;100.00
62031;BME280;62035;52.094;5.112;2022-10-03T11:20:26;102815.84;;;20.02;100.00
62031;BME280;62035;52.094;5.112;2022-10-03T11:33:44;102800.00;;;20.07;100.00
62031;BME280;62035;52.094;5.112;2022-10-03T11:36:59;102803.97;;;20.37;100.00
62031;BME280;62035;52.094;5.112;2022-10-03T11:39:40;102802.81;;;20.47;100.00
62031;BME280;62035;52.094;5.112;2022-10-03T11:42:26;102794.06;;;20.61;100.00
62031;BME280;62035;52.094;5.112;2022-10-03T11:45:16;102797.78;;;20.85;100.00
62031;BME280;62035;52.094;5.112;2022-10-03T11:47:56;102799.81;;;21.23;100.00
62031;BME280;62035;52.094;5.112;2022-10-03T11:50:42;102798.41;;;21.44;100.00
62031;BME280;62035;52.094;5.112;2022-10-03T11:53:21;102809.44;;;21.34;100.00
62031;BME280;62035;52.094;5.112;2022-10-03T11:56:18;102800.16;;;20.80;100.00
62031;BME280;62035;52.094;5.112;2022-10-03T12:02:22;102799.41;;;21.51;100.00
62031;BME280;62035;52.094;5.112;2022-10-03T12:05:13;102789.44;;;21.51;100.00
62031;BME280;62035;52.094;5.112;2022-10-03T12:07:56;102792.66;;;21.39;100.00
62031;BME280;62035;52.094;5.112;2022-10-03T12:11:04;102788.81;;;21.25;100.00
62031;BME280;62035;52.094;5.112;2022-10-03T12:13:44;102793.72;;;20.89;100.00
62031;BME280;62035;52.094;5.112;2022-10-03T12:16:23;102791.69;;;21.07;100.00
62031;BME280;62035;52.094;5.112;2022-10-03T12:19:02;102786.59;;;21.12;100.00
62031;BME280;62035;52.094;5.112;2022-10-03T12:21:43;102786.94;;;21.01;100.00
62031;BME280;62035;52.094;5.112;2022-10-03T12:24:24;102790.66;;;21.16;100.00
62031;BME280;62035;52.094;5.112;2022-10-03T12:27:00;102781.72;;;21.08;100.00
62031;BME280;62035;52.094;5.112;2022-10-03T12:29:38;102784.59;;;21.06;100.00
62031;BME280;62035;52.094;5.112;2022-10-03T12:32:17;102781.19;;;20.88;100.00
62031;BME280;62035;52.094;5.112;2022-10-03T12:35:11;102784.94;;;20.79;100.00
62031;BME280;62035;52.094;5.112;2022-10-03T12:38:10;102774.47;;;20.68;100.00
62031;BME280;62035;52.094;5.112;2022-10-03T12:40:55;102783.06;;;20.63;100.00
62031;BME280;62035;52.094;5.112;2022-10-03T12:43:46;102780.88;;;20.58;100.00
62031;BME280;62035;52.094;5.112;2022-10-03T12:46:36;102772.59;;;20.52;100.00
62031;BME280;62035;52.094;5.112;2022-10-03T12:49:16;102761.94;;;20.58;100.00
62031;BME280;62035;52.094;5.112;2022-10-03T12:51:56;102776.50;;;20.74;100.00
62031;BME280;62035;52.094;5.112;2022-10-03T12:54:42;102767.19;;;20.76;100.00
62031;BME280;62035;52.094;5.112;2022-10-03T13:00:22;102768.88;;;20.61;100.00
62031;BME280;62035;52.094;5.112;2022-10-03T13:03:14;102767.50;;;20.57;100.00
62031;BME280;62035;52.094;5.112;2022-10-03T13:06:12;102762.88;;;20.25;100.00
62031;BME280;62035;52.094;5.112;2022-10-03T13:09:07;102760.91;;;20.43;100.00
62031;BME280;62035;52.094;5.112;2022-10-03T13:11:54;102758.84;;;20.29;100.00
62031;BME280;62035;52.094;5.112;2022-10-03T13:14:45;102772.16;;;20.14;100.00
62031;BME280;62035;52.094;5.112;2022-10-03T13:17:55;102751.97;;;19.84;100.00
62031;BME280;62035;52.094;5.112;2022-10-03T13:20:35;102762.41;;;19.79;100.00
62031;BME280;62035;52.094;5.112;2022-10-03T13:23:10;102770.03;;;19.84;100.00
62031;BME280;62035;52.094;5.112;2022-10-03T13:25:55;102770.03;;;19.50;100.00
62031;BME280;62035;52.094;5.112;2022-10-03T13:28:37;102758.78;;;19.54;100.00
62031;BME280;62035;52.094;5.112;2022-10-03T13:31:27;102752.94;;;19.41;100.00
62031;BME280;62035;52.094;5.112;2022-10-03T13:34:01;102761.22;;;19.74;100.00
62031;BME280;62035;52.094;5.112;2022-10-03T13:36:41;102744.88;;;19.83;100.00
62031;BME280;62035;52.094;5.112;2022-10-03T13:39:15;102744.91;;;19.99;100.00
62031;BME280;62035;52.094;5.112;2022-10-03T13:41:59;102742.88;;;20.02;100.00
62031;BME280;62035;52.094;5.112;2022-10-03T13:44:41;102744.09;;;20.07;100.00
62031;BME280;62035;52.094;5.112;2022-10-03T13:47:29;102756.00;;;19.80;100.00
62031;BME280;62035;52.094;5.112;2022-10-03T13:50:14;102742.09;;;19.67;100.00
62031;BME280;62035;52.094;5.112;2022-10-03T13:52:48;102739.97;;;19.79;100.00
62031;BME280;62035;52.094;5.112;2022-10-03T13:55:40;102745.28;;;20.13;100.00
62031;BME280;62035;52.094;5.112;2022-10-03T13:58:33;102740.69;;;19.89;100.00
62031;BME280;62035;52.094;5.112;2022-10-03T14:01:26;102732.66;;;19.71;100.00
62031;BME280;62035;52.094;5.112;2022-10-03T14:07:22;102726.16;;;19.90;100.00
62031;BME280;62035;52.094;5.112;2022-10-03T14:10:09;102726.00;;;20.08;100.00
62031;BME280;62035;52.094;5.112;2022-10-03T14:12:58;102734.91;;;19.84;100.00
62031;BME280;62035;52.094;5.112;2022-10-03T14:15:49;102728.81;;;19.82;100.00
62031;BME280;62035;52.094;5.112;2022-10-03T14:18:36;102721.06;;;19.45;100.00
62031;BME280;62035;52.094;5.112;2022-10-03T14:21:29;102718.44;;;19.53;100.00
62031;BME280;62035;52.094;5.112;2022-10-03T14:24:26;102712.78;;;19.80;100.00
62031;BME280;62035;52.094;5.112;2022-10-03T14:27:10;102718.72;;;19.50;100.00
62031;BME280;62035;52.094;5.112;2022-10-03T14:29:54;102716.34;;;19.13;100.00
62031;BME280;62035;52.094;5.112;2022-10-03T14:32:34;102708.09;;;19.14;100.00
62031;BME280;62035;52.094;5.112;2022-10-03T14:35:21;102718.56;;;19.17;100.00
62031;BME280;62035;52.094;5.112;2022-10-03T14:38:08;102708.31;;;19.29;100.00
62031;BME280;62035;52.094;5.112;2022-10-03T14:40:47;102715.66;;;19.45;100.00
62031;BME280;62035;52.094;5.112;2022-10-03T14:43:28;102704.38;;;19.49;100.00
62031;BME280;62035;52.094;5.112;2022-10-03T14:46:05;102704.00;;;19.44;100.00
62031;BME280;62035;52.094;5.112;2022-10-03T14:48:40;102703.50;;;19.41;100.00
62031;BME280;62035;52.094;5.112;2022-10-03T14:51:15;102685.97;;;19.45;100.00
62031;BME280;62035;52.094;5.112;2022-10-03T14:53:51;102687.41;;;19.31;100.00
62031;BME280;62035;52.094;5.112;2022-10-03T14:56:22;102683.06;;;19.38;100.00
62031;BME280;62035;52.094;5.112;2022-10-03T14:58:53;102686.19;;;19.59;100.00
62031;BME280;62035;52.094;5.112;2022-10-03T15:01:23;102689.94;;;19.58;100.00
62031;BME280;62035;52.094;5.112;2022-10-03T15:03:58;102681.75;;;19.50;100.00
62031;BME280;62035;52.094;5.112;2022-10-03T15:06:48;102683.53;;;19.68;100.00
62031;BME280;62035;52.094;5.112;2022-10-03T15:09:23;102673.56;;;19.68;100.00
62031;BME280;62035;52.094;5.112;2022-10-03T15:12:02;102673.22;;;19.63;100.00
62031;BME280;62035;52.094;5.112;2022-10-03T15:14:36;102669.28;;;19.49;100.00
62031;BME280;62035;52.094;5.112;2022-10-03T15:17:16;102672.69;;;19.51;100.00
62031;BME280;62035;52.094;5.112;2022-10-03T15:19:51;102667.34;;;19.33;100.00
62031;BME280;62035;52.094;5.112;2022-10-03T15:22:27;102664.97;;;19.30;100.00
62031;BME280;62035;52.094;5.112;2022-10-03T15:25:03;102663.31;;;19.38;100.00
62031;BME280;62035;52.094;5.112;2022-10-03T15:27:39;102654.75;;;19.50;100.00
62031;BME280;62035;52.094;5.112;2022-10-03T15:30:19;102654.63;;;19.60;100.00
62031;BME280;62035;52.094;5.112;2022-10-03T15:32:49;102653.31;;;19.72;100.00
62031;BME280;62035;52.094;5.112;2022-10-03T15:35:23;102651.97;;;19.76;100.00
62031;BME280;62035;52.094;5.112;2022-10-03T15:37:54;102660.28;;;19.41;100.00
62031;BME280;62035;52.094;5.112;2022-10-03T15:40:36;102661.22;;;19.23;100.00
62031;BME280;62035;52.094;5.112;2022-10-03T15:43:26;102650.78;;;19.28;100.00
62031;BME280;62035;52.094;5.112;2022-10-03T15:46:00;102653.00;;;19.33;100.00
62031;BME280;62035;52.094;5.112;2022-10-03T15:48:32;102650.34;;;19.41;100.00
62031;BME280;62035;52.094;5.112;2022-10-03T15:51:03;102652.63;;;19.28;100.00
62031;BME280;62035;52.094;5.112;2022-10-03T15:53:39;102652.78;;;19.26;100.00
62031;BME280;62035;52.094;5.112;2022-10-03T15:56:11;102644.81;;;19.09;100.00
62031;BME280;62035;52.094;5.112;2022-10-03T15:58:46;102650.69;;;19.04;100.00
62031;BME280;62035;52.094;5.112;2022-10-03T16:01:19;102645.59;;;19.01;100.00
62031;BME280;62035;52.094;5.112;2022-10-03T16:03:52;102641.16;;;18.92;100.00
62031;BME280;62035;52.094;5.112;2022-10-03T16:06:29;102639.19;;;19.02;100.00
62031;BME280;62035;52.094;5.112;2022-10-03T16:09:10;102643.44;;;19.05;100.00
62031;BME280;62035;52.094;5.112;2022-10-03T16:11:53;102632.34;;;18.82;100.00
62031;BME280;62035;52.094;5.112;2022-10-03T16:14:33;102632.69;;;18.87;100.00
62031;BME280;62035;52.094;5.112;2022-10-03T16:17:13;102632.25;;;18.65;100.00
62031;BME280;62035;52.094;5.112;2022-10-03T16:19:50;102630.63;;;18.55;100.00
62031;BME280;62035;52.094;5.112;2022-10-03T16:22:25;102633.31;;;18.11;100.00
62031;BME280;62035;52.094;5.112;2022-10-03T16:25:05;102627.63;;;18.14;100.00
62031;BME280;62035;52.094;5.112;2022-10-03T16:27:44;102630.00;;;17.99;100.00
62031;BME280;62035;52.094;5.112;2022-10-03T16:30:20;102630.66;;;17.93;100.00
62031;BME280;62035;52.094;5.112;2022-10-03T16:33:00;102634.72;;;17.80;100.00
62031;BME280;62035;52.094;5.112;2022-10-03T16:35:42;102623.50;;;17.57;100.00
62031;BME280;62035;52.094;5.112;2022-10-03T16:38:20;102626.50;;;17.54;100.00
62031;BME280;62035;52.094;5.112;2022-10-03T16:40:59;102621.56;;;17.49;100.00
62031;BME280;62035;52.094;5.112;2022-10-03T16:43:30;102622.47;;;17.40;100.00
62031;BME280;62035;52.094;5.112;2022-10-03T16:46:01;102617.03;;;17.50;100.00
62031;BME280;62035;52.094;5.112;2022-10-03T16:48:35;102624.63;;;17.37;100.00
62031;BME280;62035;52.094;5.112;2022-10-03T16:51:23;102631.34;;;17.23;100.00
62031;BME280;62035;52.094;5.112;2022-10-03T16:53:55;102626.25;;;17.20;100.00
62031;BME280;62035;52.094;5.112;2022-10-03T16:56:25;102612.66;;;17.21;100.00